createdAt,value
2018-03-14T00:01:21.338Z,8.08
2018-03-14T00:07:12.041Z,4.76
2018-03-14T00:13:02.841Z,5.97
2018-03-14T00:18:53.545Z,10.23
2018-03-14T00:24:44.293Z,8.38
2018-03-14T00:30:35.043Z,9.54
2018-03-14T00:36:25.788Z,4.85
2018-03-14T00:42:16.546Z,5.91
2018-03-14T00:48:07.341Z,5.75
2018-03-14T00:53:58.109Z,4.99
2018-03-14T00:59:48.811Z,8.88
2018-03-14T01:05:39.589Z,4.22
2018-03-14T01:11:30.369Z,4.72
2018-03-14T01:17:21.101Z,5.06
2018-03-14T01:23:11.825Z,8.23
2018-03-14T01:29:02.615Z,14.11
2018-03-14T01:34:53.334Z,5.35
2018-03-14T01:40:44.131Z,7.47
2018-03-14T01:46:34.909Z,8.66
2018-03-14T01:52:25.649Z,7.16
2018-03-14T01:58:16.328Z,8.44
2018-03-14T02:04:07.148Z,10.73
2018-03-14T02:09:57.858Z,10.59
2018-03-14T02:15:48.594Z,9.01
2018-03-14T02:21:39.380Z,6.44
2018-03-14T02:27:30.099Z,7.03
2018-03-14T02:33:20.896Z,6.74
2018-03-14T02:39:11.669Z,5.8
2018-03-14T02:45:02.448Z,9.57
2018-03-14T02:50:53.183Z,15.7
2018-03-14T02:56:43.846Z,7.91
2018-03-14T03:02:34.613Z,9.76
2018-03-14T03:08:25.351Z,12.54
2018-03-14T03:14:16.128Z,9.38
2018-03-14T03:20:06.907Z,10.58
2018-03-14T03:25:57.602Z,9.22
2018-03-14T03:31:48.330Z,12.66
2018-03-14T03:37:39.088Z,11.62
2018-03-14T03:43:29.856Z,8.94
2018-03-14T03:49:20.618Z,13.21
2018-03-14T03:55:11.346Z,13.21
2018-03-14T04:01:02.120Z,9.04
2018-03-14T04:06:52.817Z,6.35
2018-03-14T04:12:43.553Z,11.92
2018-03-14T04:18:34.329Z,11.95
2018-03-14T04:24:25.041Z,16.82
2018-03-14T04:30:15.784Z,14.75
2018-03-14T04:36:06.529Z,14.48
2018-03-14T04:41:57.305Z,7.03
2018-03-14T04:47:48.106Z,18.12
2018-03-14T04:53:38.794Z,11.91
2018-03-14T04:59:29.487Z,9.74
2018-03-14T05:05:20.250Z,11.16
2018-03-14T05:11:10.987Z,12.65
2018-03-14T05:17:01.763Z,13.26
2018-03-14T05:22:52.476Z,13.84
2018-03-14T05:28:43.218Z,13.35
2018-03-14T05:34:33.976Z,16.35
2018-03-14T05:40:24.689Z,17.53
2018-03-14T05:46:15.444Z,13.39
2018-03-14T05:52:06.232Z,13.05
2018-03-14T05:57:56.975Z,9.56
2018-03-14T06:03:47.691Z,9.39
2018-03-14T06:09:38.407Z,13.27
2018-03-14T06:15:29.138Z,6.88
2018-03-14T06:21:19.902Z,7.49
2018-03-14T06:27:10.671Z,12.79
2018-03-14T06:33:01.390Z,4.44
2018-03-14T06:38:52.157Z,9.05
2018-03-14T06:44:42.866Z,18.03
2018-03-14T06:50:33.660Z,9.95
2018-03-14T06:56:24.392Z,20.49
2018-03-14T07:02:15.102Z,22.04
2018-03-14T07:08:05.866Z,23.48
2018-03-14T07:13:56.621Z,19.01
2018-03-14T07:19:47.376Z,22.32
2018-03-14T07:25:38.147Z,22.97
2018-03-14T07:31:28.883Z,17.86
2018-03-14T07:37:19.623Z,13.59
2018-03-14T07:43:10.365Z,14.89
2018-03-14T07:49:01.150Z,14.6
2018-03-14T07:54:51.936Z,20.69
2018-03-14T08:00:42.690Z,23.11
2018-03-14T08:06:33.451Z,16.76
2018-03-14T08:12:24.263Z,18.66
2018-03-14T08:18:15.016Z,10.88
2018-03-14T08:24:05.794Z,15.53
2018-03-14T08:29:56.604Z,15.82
2018-03-14T08:35:47.374Z,12.04
2018-03-14T08:41:38.179Z,16.59
2018-03-14T08:47:29.020Z,21.64
2018-03-14T08:53:19.758Z,21.64
2018-03-14T08:59:10.551Z,17.88
2018-03-14T09:05:01.338Z,29.79
2018-03-14T09:10:52.110Z,37
2018-03-14T09:16:43.006Z,20.97
2018-03-14T09:22:33.739Z,23.62
2018-03-14T09:28:24.523Z,17.9
2018-03-14T09:34:15.351Z,23.78
2018-03-14T09:40:06.157Z,28.35
2018-03-14T09:45:56.969Z,24.73
2018-03-14T09:51:47.741Z,24.81
2018-03-14T09:57:38.565Z,34.89
2018-03-14T10:03:29.377Z,20.76
2018-03-14T10:09:20.143Z,27.65
2018-03-14T10:15:11.136Z,19.74
2018-03-14T10:21:01.763Z,21.71
2018-03-14T10:26:52.671Z,15.78
2018-03-14T10:32:43.430Z,12.35
2018-03-14T10:38:34.260Z,20.12
2018-03-14T10:44:25.052Z,5.82
2018-03-14T10:50:15.963Z,7.94
2018-03-14T10:56:06.775Z,7.03
2018-03-14T11:01:57.529Z,8.79
2018-03-14T11:07:48.400Z,8.75
2018-03-14T11:13:39.148Z,11.85
2018-03-14T11:19:30.007Z,6.71
2018-03-14T11:25:20.805Z,11.99
2018-03-14T11:31:11.736Z,15.62
2018-03-14T11:37:02.412Z,6.86
2018-03-14T11:42:53.247Z,4.93
2018-03-14T11:48:44.091Z,6.07
2018-03-14T11:54:34.886Z,8.79
2018-03-14T12:00:25.709Z,6.46
2018-03-14T12:06:16.527Z,11.87
2018-03-14T12:12:07.376Z,6.24
2018-03-14T12:17:58.156Z,11.8
2018-03-14T12:23:49.049Z,6.87
2018-03-14T12:29:39.900Z,11.11
2018-03-14T12:35:30.699Z,10.96
2018-03-14T12:41:21.469Z,5.61
2018-03-14T12:47:12.330Z,8.87
2018-03-14T12:53:03.198Z,13.74
2018-03-14T12:58:53.899Z,10.14
2018-03-14T13:04:44.830Z,4.84
2018-03-14T13:10:35.561Z,6.85
2018-03-14T13:16:26.420Z,6.43
2018-03-14T13:22:17.238Z,13.26
2018-03-14T13:28:08.061Z,7.6
2018-03-14T13:33:58.895Z,5.29
2018-03-14T13:39:49.720Z,9.17
2018-03-14T13:45:40.483Z,7.45
2018-03-14T13:51:31.282Z,6.46
2018-03-14T13:57:22.095Z,6.03
2018-03-14T14:03:12.937Z,8.81
2018-03-14T14:09:03.826Z,5.11
2018-03-14T14:14:54.606Z,7.19
2018-03-14T14:20:45.385Z,5.24
2018-03-14T14:26:36.199Z,8.64
2018-03-14T14:32:27.106Z,10.02
2018-03-14T14:38:17.911Z,5.69
2018-03-14T14:44:08.667Z,2.62
2018-03-14T14:49:59.493Z,6.96
2018-03-14T14:55:50.372Z,7.38
2018-03-14T15:01:41.140Z,6.24
2018-03-14T15:07:31.993Z,5.62
2018-03-14T15:13:22.873Z,13.4
2018-03-14T15:19:13.631Z,3.43
2018-03-14T15:25:04.411Z,3.38
2018-03-14T15:30:55.237Z,5.05
2018-03-14T15:36:46.052Z,6.26
2018-03-14T15:42:36.862Z,2.95
2018-03-14T15:48:27.682Z,8.76
2018-03-14T15:54:18.565Z,6.39
2018-03-14T16:00:09.320Z,5.04
2018-03-14T16:06:00.142Z,7.04
2018-03-14T16:11:50.971Z,7.5
2018-03-14T16:17:41.747Z,7.67
2018-03-14T16:23:32.530Z,12.26
2018-03-14T16:29:23.370Z,10
2018-03-14T16:35:14.105Z,9.87
2018-03-14T16:41:05.001Z,4.74
2018-03-14T16:46:55.792Z,13.36
2018-03-14T16:52:46.566Z,6.22
2018-03-14T16:58:37.398Z,9.1
2018-03-14T17:04:28.193Z,9.12
2018-03-14T17:10:19.368Z,10.72
2018-03-14T17:16:09.711Z,11.51
2018-03-14T17:22:00.512Z,13.29
2018-03-14T17:27:51.303Z,14.51
2018-03-14T17:33:42.130Z,6.47
2018-03-14T17:39:32.934Z,7.06
2018-03-14T17:45:23.681Z,9.86
2018-03-14T17:51:14.511Z,13.78
2018-03-14T17:57:05.274Z,4.37
2018-03-14T18:02:56.097Z,11.04
2018-03-14T18:08:46.857Z,10.75
2018-03-14T18:14:37.630Z,18.78
2018-03-14T18:20:28.416Z,13.87
2018-03-14T18:26:19.238Z,11.34
2018-03-14T18:32:09.963Z,20.05
2018-03-14T18:38:00.746Z,13.35
2018-03-14T18:43:51.582Z,14.82
2018-03-14T18:49:42.361Z,15.18
2018-03-14T18:55:33.069Z,13.69
2018-03-14T19:01:23.859Z,10.41
2018-03-14T19:07:14.704Z,19.38
2018-03-14T19:13:05.438Z,16.97
2018-03-14T19:18:56.229Z,18.91
2018-03-14T19:24:46.998Z,27.49
2018-03-14T19:30:37.836Z,27.67
2018-03-14T19:36:28.614Z,22.94
2018-03-14T19:42:19.358Z,32.24
2018-03-14T19:48:10.142Z,42.95
2018-03-14T19:54:00.851Z,22.15
2018-03-14T19:59:51.602Z,22.6
2018-03-14T20:05:42.396Z,15.99
2018-03-14T20:11:33.158Z,11.42
2018-03-14T20:17:23.914Z,24.35
2018-03-14T20:23:14.700Z,20.12
2018-03-14T20:29:05.444Z,10.13
2018-03-14T20:34:56.232Z,9.55
2018-03-14T20:40:46.974Z,7.57
2018-03-14T20:46:37.783Z,18.54
2018-03-14T20:52:28.550Z,12.15
2018-03-14T20:58:19.273Z,13.23
2018-03-14T21:04:10.056Z,10.99
2018-03-14T21:10:00.836Z,15.36
2018-03-14T21:15:51.563Z,19.43
2018-03-14T21:21:42.328Z,16.3
2018-03-14T21:27:33.074Z,13.12
2018-03-14T21:33:23.849Z,12.05
2018-03-14T21:39:14.794Z,21.24
2018-03-14T21:45:05.424Z,22.96
2018-03-14T21:50:56.162Z,21.04
2018-03-14T21:56:46.910Z,12.41
2018-03-14T22:02:37.703Z,17.13
2018-03-14T22:08:28.463Z,14.04
2018-03-14T22:14:19.210Z,11.24
2018-03-14T22:20:09.973Z,10.46
2018-03-14T22:26:00.789Z,9.95
2018-03-14T22:31:51.493Z,13.92
2018-03-14T22:37:42.241Z,17.08
2018-03-14T22:43:32.952Z,8.02
2018-03-14T22:49:23.738Z,13.97
2018-03-14T22:55:14.453Z,12.26
2018-03-14T23:01:05.247Z,19.21
2018-03-14T23:06:55.978Z,10.59
2018-03-14T23:12:46.726Z,10.85
2018-03-14T23:18:37.570Z,15.11
2018-03-14T23:24:28.210Z,15.13
2018-03-14T23:30:18.981Z,10.79
2018-03-14T23:36:09.726Z,16.06
2018-03-14T23:42:00.511Z,11.23
2018-03-14T23:47:51.237Z,17.85
2018-03-14T23:53:41.983Z,13.3
2018-03-14T23:59:32.724Z,12.19
